Time;durP1;ratioP1;P1;durP2;ratioP2;P2;SDS_P1;SDS_P2;PMS_P1;PMS_P2;Temp;Humidity;BMP_temperature;BMP_pressure;BME280_temperature;BME280_humidity;BME280_pressure;Samples;Min_cycle;Max_cycle;Signal;HPM_P1;HPM_P2
2022/05/02 00:00:24;;;;;;;10.90;8.18;;;10.60;99.90;;;;;;5001338;28;20212;-52
2022/05/02 00:02:52;;;;;;;10.20;8.60;;;10.60;99.90;;;;;;5001205;28;20290;-49
2022/05/02 00:05:20;;;;;;;8.65;7.80;;;10.50;99.90;;;;;;5001221;28;20294;-51
2022/05/02 00:07:48;;;;;;;11.10;8.82;;;10.60;99.90;;;;;;5001098;28;20300;-52
2022/05/02 00:10:16;;;;;;;10.38;7.25;;;10.50;99.90;;;;;;5000947;28;20215;-50
2022/05/02 00:12:43;;;;;;;10.52;7.85;;;10.50;99.90;;;;;;5000922;28;20403;-51
2022/05/02 00:15:11;;;;;;;11.70;8.20;;;10.30;99.90;;;;;;5000762;28;20583;-50
2022/05/02 00:17:56;;;;;;;10.15;8.68;;;10.20;99.90;;;;;;5000878;28;20280;-52
2022/05/02 00:20:29;;;;;;;10.68;9.27;;;10.30;99.90;;;;;;5000639;28;20232;-51
2022/05/02 00:22:59;;;;;;;11.20;8.52;;;10.20;99.90;;;;;;5000617;28;20218;-53
2022/05/02 00:25:27;;;;;;;10.43;8.50;;;10.10;99.90;;;;;;5000681;28;20225;-50
2022/05/02 00:27:55;;;;;;;11.57;9.43;;;10.10;99.90;;;;;;5000648;28;20304;-51
2022/05/02 00:30:23;;;;;;;10.02;9.05;;;10.10;99.90;;;;;;5000516;28;20207;-52
2022/05/02 00:32:51;;;;;;;9.65;8.00;;;10.40;99.90;;;;;;5000554;28;20246;-51
2022/05/02 00:35:18;;;;;;;14.10;8.75;;;10.40;99.90;;;;;;5000965;28;20283;-52
2022/05/02 00:37:47;;;;;;;11.75;8.75;;;10.20;99.90;;;;;;5000218;28;20489;-50
2022/05/02 00:40:17;;;;;;;12.38;8.80;;;10.10;99.90;;;;;;5001091;28;20219;-51
2022/05/02 00:42:46;;;;;;;13.85;8.63;;;10.20;99.90;;;;;;5000492;28;20204;-49
2022/05/02 00:45:15;;;;;;;12.45;9.48;;;10.10;99.90;;;;;;5000665;28;20224;-50
2022/05/02 00:47:55;;;;;;;12.77;8.13;;;10.10;99.90;;;;;;5000457;28;20282;-51
2022/05/02 00:50:34;;;;;;;16.02;9.63;;;10.00;99.90;;;;;;5000627;28;20280;-50
2022/05/02 00:53:04;;;;;;;11.98;8.20;;;10.10;99.90;;;;;;5000610;28;20192;-51
2022/05/02 00:55:32;;;;;;;9.43;8.18;;;10.20;99.90;;;;;;5001064;28;20274;-51
2022/05/02 00:58:01;;;;;;;11.18;7.45;;;10.10;99.90;;;;;;5000583;28;20259;-50
2022/05/02 01:00:30;;;;;;;11.88;7.57;;;10.20;99.90;;;;;;5001008;28;20204;-51
2022/05/02 01:02:57;;;;;;;11.55;8.57;;;10.30;99.90;;;;;;5000122;28;20280;-50
2022/05/02 01:05:28;;;;;;;10.77;8.40;;;10.40;99.90;;;;;;5000430;28;20587;-53
2022/05/02 01:07:56;;;;;;;10.32;8.55;;;10.70;99.90;;;;;;5000043;28;20224;-50
2022/05/02 01:10:24;;;;;;;9.23;6.75;;;10.70;99.90;;;;;;5000618;28;20208;-51
2022/05/02 01:12:52;;;;;;;9.52;8.30;;;10.80;99.90;;;;;;5000243;28;20200;-54
2022/05/02 01:15:19;;;;;;;10.57;7.32;;;10.80;99.90;;;;;;5000859;28;20212;-51
2022/05/02 01:17:46;;;;;;;9.00;7.85;;;10.80;99.90;;;;;;5000243;28;20295;-52
2022/05/02 01:20:15;;;;;;;11.40;7.70;;;10.80;99.90;;;;;;5002975;28;20411;-52
2022/05/02 01:22:42;;;;;;;9.88;8.82;;;10.70;99.90;;;;;;5006563;28;20239;-50
2022/05/02 01:25:11;;;;;;;11.70;9.68;;;10.70;99.90;;;;;;5005671;28;20323;-50
2022/05/02 01:27:38;;;;;;;10.30;8.52;;;10.60;99.90;;;;;;5003650;28;20212;-53
2022/05/02 01:30:06;;;;;;;10.05;9.05;;;10.60;99.90;;;;;;5003775;28;20219;-49
2022/05/02 01:32:33;;;;;;;11.30;8.90;;;10.60;99.90;;;;;;5003821;28;20268;-49
2022/05/02 01:35:01;;;;;;;17.13;8.90;;;10.50;99.90;;;;;;5003307;28;20204;-51
2022/05/02 01:37:28;;;;;;;12.05;9.65;;;10.40;99.90;;;;;;5003662;28;20449;-51
2022/05/02 01:39:56;;;;;;;9.60;8.15;;;10.10;99.90;;;;;;5003593;28;20287;-50
2022/05/02 01:42:23;;;;;;;9.05;8.00;;;10.10;99.90;;;;;;5003637;28;20284;-51
2022/05/02 01:44:50;;;;;;;10.60;8.63;;;10.30;99.90;;;;;;5003487;28;20294;-51
2022/05/02 01:47:18;;;;;;;8.43;7.63;;;10.40;99.90;;;;;;5003335;28;20205;-51
2022/05/02 01:49:45;;;;;;;9.85;8.88;;;10.30;99.90;;;;;;5003230;28;20219;-52
2022/05/02 01:52:12;;;;;;;12.18;7.38;;;9.90;99.90;;;;;;5003189;28;20200;-54
2022/05/02 01:54:39;;;;;;;9.75;8.57;;;9.70;99.90;;;;;;5010925;28;20221;-52
2022/05/02 01:57:06;;;;;;;12.95;8.23;;;9.70;99.90;;;;;;5014333;28;20297;-53
2022/05/02 01:59:34;;;;;;;10.50;8.57;;;9.80;99.90;;;;;;5022824;28;20246;-51
2022/05/02 02:02:01;;;;;;;11.32;8.68;;;9.80;99.90;;;;;;5022502;28;20209;-52
2022/05/02 02:07:14;;;;;;;12.30;9.90;;;9.80;99.90;;;;;;5022432;28;20202;-52
2022/05/02 02:09:42;;;;;;;13.65;10.35;;;9.70;99.90;;;;;;5022617;28;20229;-51
2022/05/02 02:12:10;;;;;;;17.25;10.25;;;9.60;99.90;;;;;;5022781;28;20277;-54
2022/05/02 02:14:37;;;;;;;10.40;9.15;;;9.50;99.90;;;;;;5023106;28;20273;-50
2022/05/02 02:17:05;;;;;;;10.20;9.20;;;9.60;99.90;;;;;;5022697;28;20272;-48
2022/05/02 02:19:32;;;;;;;9.15;8.30;;;9.50;99.90;;;;;;5022310;28;20568;-49
2022/05/02 02:22:16;;;;;;;11.65;8.30;;;9.50;99.90;;;;;;5022431;28;20202;-49
2022/05/02 02:24:46;;;;;;;13.10;10.70;;;9.40;99.90;;;;;;5022023;28;20540;-49
2022/05/02 02:27:14;;;;;;;12.15;9.43;;;9.30;99.90;;;;;;5022532;28;20198;-51
2022/05/02 02:29:41;;;;;;;13.93;8.48;;;9.30;99.90;;;;;;5021780;28;20477;-49
2022/05/02 02:32:08;;;;;;;10.32;9.00;;;9.30;99.90;;;;;;5022324;28;20204;-50
2022/05/02 02:34:36;;;;;;;15.48;10.55;;;9.20;99.90;;;;;;5022441;28;20269;-51
2022/05/02 02:37:03;;;;;;;15.48;9.48;;;9.10;99.90;;;;;;5022042;28;20323;-50
2022/05/02 02:39:31;;;;;;;15.50;9.30;;;9.10;99.90;;;;;;5021646;28;20237;-51
2022/05/02 02:41:58;;;;;;;15.35;10.63;;;9.10;99.90;;;;;;5021903;28;20211;-51
2022/05/02 02:44:25;;;;;;;11.00;9.77;;;9.00;99.90;;;;;;5022060;28;20290;-50
2022/05/02 02:46:52;;;;;;;10.70;9.48;;;8.90;99.90;;;;;;5021533;28;20267;-50
2022/05/02 02:49:20;;;;;;;10.18;8.93;;;8.90;99.90;;;;;;5022480;28;20389;-50
2022/05/02 02:51:47;;;;;;;12.15;10.07;;;8.80;99.90;;;;;;5022052;28;20241;-51
2022/05/02 02:54:14;;;;;;;13.38;9.30;;;8.80;99.90;;;;;;5024235;28;20644;-49
2022/05/02 02:56:42;;;;;;;13.63;10.40;;;8.70;99.90;;;;;;5027184;28;20290;-50
2022/05/02 02:59:09;;;;;;;10.52;9.43;;;8.60;99.90;;;;;;5031150;28;20278;-51
2022/05/02 03:01:37;;;;;;;11.27;10.27;;;8.50;99.90;;;;;;5030250;28;20193;-49
2022/05/02 03:06:52;;;;;;;14.98;10.77;;;8.30;99.90;;;;;;5021246;28;20212;-50
2022/05/02 03:09:20;;;;;;;11.68;9.77;;;8.30;99.90;;;;;;5022015;28;20460;-51
2022/05/02 03:11:47;;;;;;;13.43;10.73;;;8.30;99.90;;;;;;5023064;28;20215;-52
2022/05/02 03:14:14;;;;;;;10.73;9.50;;;8.20;99.90;;;;;;5022931;28;20267;-52
2022/05/02 03:16:41;;;;;;;11.00;9.32;;;8.20;99.90;;;;;;5023043;28;20215;-50
2022/05/02 03:19:08;;;;;;;13.57;11.15;;;8.10;99.90;;;;;;5022878;28;20311;-49
2022/05/02 03:21:36;;;;;;;9.98;8.55;;;8.10;99.90;;;;;;5023982;28;20395;-51
2022/05/02 03:24:04;;;;;;;14.95;9.68;;;8.20;99.90;;;;;;5023138;28;20511;-49
2022/05/02 03:26:31;;;;;;;11.57;9.55;;;8.20;99.90;;;;;;5022315;28;20209;-50
2022/05/02 03:28:58;;;;;;;12.50;10.45;;;8.20;99.90;;;;;;5020805;28;20216;-51
2022/05/02 03:31:26;;;;;;;11.80;9.63;;;8.30;99.90;;;;;;5021307;28;20289;-52
2022/05/02 03:33:53;;;;;;;10.68;9.30;;;8.40;99.90;;;;;;5020889;28;20438;-51
2022/05/02 03:36:21;;;;;;;13.88;10.85;;;8.60;99.90;;;;;;5021306;28;20197;-50
2022/05/02 03:38:48;;;;;;;11.15;10.10;;;8.60;99.90;;;;;;5020321;28;20233;-51
2022/05/02 03:41:15;;;;;;;12.73;8.88;;;8.50;99.90;;;;;;5021294;28;20260;-51
2022/05/02 03:43:42;;;;;;;12.45;8.60;;;8.50;99.90;;;;;;5020570;28;20197;-51
2022/05/02 03:46:09;;;;;;;16.20;10.95;;;8.40;99.90;;;;;;5020659;28;20236;-52
2022/05/02 03:48:37;;;;;;;10.93;9.18;;;8.40;99.90;;;;;;5020933;28;20237;-48
2022/05/02 03:51:04;;;;;;;10.00;9.00;;;8.60;99.90;;;;;;5020122;28;20469;-50
2022/05/02 03:53:31;;;;;;;10.18;9.05;;;8.70;99.90;;;;;;5019387;28;20453;-53
2022/05/02 03:55:59;;;;;;;12.35;9.32;;;8.60;99.90;;;;;;5020676;28;20196;-50
2022/05/02 03:58:26;;;;;;;9.05;8.20;;;8.60;99.90;;;;;;5020640;28;20479;-50
2022/05/02 04:00:53;;;;;;;10.05;8.45;;;8.80;99.90;;;;;;5019204;28;20208;-50
2022/05/02 04:03:20;;;;;;;11.38;10.15;;;8.90;99.90;;;;;;5020611;28;20202;-51
2022/05/02 04:05:48;;;;;;;18.95;10.27;;;9.00;99.90;;;;;;5018963;28;20233;-51
2022/05/02 04:08:16;;;;;;;18.05;10.52;;;8.90;99.90;;;;;;5019545;28;20535;-51
2022/05/02 04:10:43;;;;;;;13.82;10.00;;;8.90;99.90;;;;;;5020792;28;20219;-50
2022/05/02 04:13:10;;;;;;;12.93;8.13;;;8.90;99.90;;;;;;5020558;28;20201;-54
2022/05/02 04:15:38;;;;;;;10.23;8.70;;;8.80;99.90;;;;;;5020778;28;20566;-50
2022/05/02 04:18:08;;;;;;;11.27;8.15;;;8.90;99.90;;;;;;5020894;28;20228;-49
2022/05/02 04:20:35;;;;;;;8.20;7.40;;;9.00;99.90;;;;;;5021250;28;20455;-50
2022/05/02 04:23:05;;;;;;;10.10;8.43;;;9.00;99.90;;;;;;5018892;28;20202;-50
2022/05/02 04:25:33;;;;;;;15.18;9.85;;;9.10;99.90;;;;;;5020762;28;20226;-51
2022/05/02 04:28:00;;;;;;;11.38;8.43;;;9.20;99.90;;;;;;5020104;28;20218;-50
2022/05/02 04:30:28;;;;;;;12.00;9.48;;;9.40;99.90;;;;;;5020484;28;20206;-50
2022/05/02 04:32:56;;;;;;;10.32;8.77;;;9.80;99.90;;;;;;5019687;28;20281;-50
2022/05/02 04:35:23;;;;;;;18.38;9.82;;;10.20;99.90;;;;;;5020532;28;20452;-50
2022/05/02 04:37:50;;;;;;;12.38;8.43;;;10.60;99.90;;;;;;5020337;28;21225;-51
2022/05/02 04:40:17;;;;;;;8.13;7.32;;;10.90;99.90;;;;;;5020016;28;20241;-51
2022/05/02 04:42:45;;;;;;;8.60;7.80;;;11.20;99.90;;;;;;5020396;28;20290;-50
2022/05/02 04:45:12;;;;;;;9.82;7.63;;;11.40;99.90;;;;;;5020586;28;20548;-51
2022/05/02 04:47:40;;;;;;;11.45;7.78;;;11.60;99.90;;;;;;5020128;28;20231;-51
2022/05/02 04:50:07;;;;;;;11.40;10.20;;;11.60;99.90;;;;;;5019329;28;20206;-51
2022/05/02 04:52:35;;;;;;;10.90;7.95;;;11.80;99.90;;;;;;5008671;28;20272;-51
2022/05/02 04:55:02;;;;;;;9.40;7.32;;;11.90;99.90;;;;;;5017598;28;20311;-49
2022/05/02 04:57:29;;;;;;;8.85;7.70;;;11.90;99.90;;;;;;5015950;28;20535;-50
2022/05/02 04:59:56;;;;;;;11.00;8.50;;;12.10;99.90;;;;;;5020458;28;20276;-51
2022/05/02 05:02:24;;;;;;;9.07;7.65;;;11.90;99.90;;;;;;5021765;28;20507;-50
2022/05/02 05:04:51;;;;;;;12.35;7.70;;;11.90;99.90;;;;;;5023896;28;20267;-50
2022/05/02 05:07:19;;;;;;;8.70;7.57;;;11.90;99.90;;;;;;5023601;28;20197;-50
2022/05/02 05:09:46;;;;;;;13.57;9.77;;;12.10;99.90;;;;;;5023530;28;20529;-51
2022/05/02 05:12:46;;;;;;;10.10;7.88;;;12.10;99.90;;;;;;5023362;28;20264;-50
2022/05/02 05:18:41;;;;;;;11.82;9.27;;;12.30;99.90;;;;;;5021905;28;20296;-49
2022/05/02 05:21:26;;;;;;;10.85;7.70;;;12.50;99.90;;;;;;5023329;28;20217;-50
2022/05/02 05:24:20;;;;;;;10.00;8.63;;;12.50;99.90;;;;;;5023546;28;20203;-52
2022/05/02 05:27:44;;;;;;;11.90;8.23;;;12.70;99.90;;;;;;5023384;28;20414;-51
2022/05/02 05:30:12;;;;;;;13.88;8.60;;;13.10;99.90;;;;;;5023542;28;20287;-51
2022/05/02 05:32:48;;;;;;;10.57;9.52;;;13.40;99.90;;;;;;5023450;28;20197;-52
2022/05/02 05:35:23;;;;;;;9.23;8.32;;;13.60;99.90;;;;;;5022858;28;20283;-53
2022/05/02 05:37:50;;;;;;;9.35;8.40;;;13.90;99.90;;;;;;5023456;28;20236;-51
2022/05/02 05:40:21;;;;;;;8.80;7.97;;;14.30;99.90;;;;;;5023471;28;20200;-54
2022/05/02 05:43:13;;;;;;;13.30;8.20;;;14.60;99.90;;;;;;5023397;28;20226;-51
2022/05/02 05:45:56;;;;;;;12.77;9.00;;;15.00;99.90;;;;;;5023220;28;20238;-50
2022/05/02 05:48:58;;;;;;;11.63;8.50;;;15.00;99.90;;;;;;5022160;28;20217;-52
2022/05/02 05:51:40;;;;;;;12.50;9.25;;;15.20;99.90;;;;;;5014162;28;20280;-50
2022/05/02 05:54:36;;;;;;;11.23;9.20;;;15.40;99.90;;;;;;5023144;28;20225;-51
2022/05/02 05:57:38;;;;;;;13.68;9.50;;;15.30;99.90;;;;;;5023255;28;20283;-53
2022/05/02 06:00:13;;;;;;;9.88;8.00;;;15.40;99.90;;;;;;5014519;28;20197;-50
2022/05/02 06:03:01;;;;;;;12.32;9.25;;;15.50;99.90;;;;;;5017022;28;20265;-50
2022/05/02 06:05:29;;;;;;;11.10;9.23;;;15.80;99.90;;;;;;5014971;28;20609;-52
2022/05/02 06:07:58;;;;;;;9.73;8.80;;;15.80;99.90;;;;;;5022586;28;20453;-50
2022/05/02 06:10:28;;;;;;;11.87;8.80;;;15.90;99.90;;;;;;5022771;28;20200;-51
2022/05/02 06:12:58;;;;;;;15.63;10.30;;;15.90;99.90;;;;;;5022384;28;20635;-50
2022/05/02 06:18:27;;;;;;;15.03;8.13;;;16.80;99.90;;;;;;5015657;28;20786;-52
2022/05/02 06:20:58;;;;;;;10.57;8.73;;;17.10;99.90;;;;;;5014382;28;20470;-51
2022/05/02 06:23:29;;;;;;;12.90;9.30;;;17.40;99.90;;;;;;5002798;28;20502;-50
2022/05/02 06:25:57;;;;;;;7.93;7.13;;;17.40;99.90;;;;;;5002624;28;20456;-52
2022/05/02 06:28:29;;;;;;;11.23;8.67;;;17.30;99.90;;;;;;5002723;28;20500;-50
2022/05/02 06:31:00;;;;;;;11.13;9.40;;;16.90;99.90;;;;;;5002753;28;20626;-52
2022/05/02 06:33:28;;;;;;;10.73;9.57;;;17.10;99.90;;;;;;5002553;28;20435;-51
2022/05/02 06:36:02;;;;;;;17.00;8.50;;;17.00;99.90;;;;;;5001992;28;20495;-50
2022/05/02 06:38:45;;;;;;;12.23;8.03;;;16.80;99.90;;;;;;4998453;28;20508;-52
2022/05/02 06:41:30;;;;;;;11.40;9.13;;;16.80;99.90;;;;;;4998998;28;20452;-51
2022/05/02 06:44:09;;;;;;;12.37;9.27;;;16.70;99.90;;;;;;4998385;28;20420;-51
2022/05/02 06:46:50;;;;;;;11.10;9.23;;;16.50;99.90;;;;;;4998859;28;20505;-50
2022/05/02 06:49:17;;;;;;;8.63;7.93;;;16.40;99.90;;;;;;4998652;28;20479;-51
2022/05/02 06:51:51;;;;;;;11.50;7.40;;;16.20;99.90;;;;;;4998982;28;20430;-51
2022/05/02 06:54:38;;;;;;;11.07;8.27;;;16.10;99.90;;;;;;5009525;28;20522;-50
2022/05/02 06:57:27;;;;;;;7.73;6.90;;;16.30;99.90;;;;;;5018334;28;20479;-50
2022/05/02 07:00:04;;;;;;;11.10;8.07;;;16.40;99.90;;;;;;5017044;28;20459;-52
2022/05/02 07:03:04;;;;;;;11.00;8.57;;;16.50;99.90;;;;;;5017096;28;20437;-49
2022/05/02 07:05:46;;;;;;;13.50;8.87;;;16.50;99.90;;;;;;5018222;28;20486;-51
2022/05/02 07:08:26;;;;;;;8.33;7.37;;;16.90;99.90;;;;;;5018225;28;20419;-50
2022/05/02 07:11:04;;;;;;;15.73;9.93;;;17.10;99.90;;;;;;5018064;28;20415;-51
2022/05/02 07:13:59;;;;;;;14.17;8.47;;;17.30;99.90;;;;;;5017910;28;20474;-51
2022/05/02 07:16:29;;;;;;;9.70;8.00;;;17.70;99.90;;;;;;5017181;28;20442;-51
2022/05/02 07:19:16;;;;;;;9.47;7.67;;;18.20;99.90;;;;;;5008771;28;20439;-52
2022/05/02 07:22:07;;;;;;;10.20;9.10;;;18.50;99.90;;;;;;4997546;28;20472;-51
2022/05/02 07:24:46;;;;;;;12.77;8.63;;;18.40;99.90;;;;;;4998333;28;20787;-54
2022/05/02 07:27:45;;;;;;;12.57;9.63;;;18.80;99.90;;;;;;4998232;28;20478;-50
2022/05/02 07:30:14;;;;;;;11.97;8.77;;;19.30;99.90;;;;;;4997755;28;20417;-52
2022/05/02 07:32:41;;;;;;;14.47;9.60;;;19.90;99.90;;;;;;4997780;28;20662;-53
2022/05/02 07:35:10;;;;;;;8.83;7.93;;;20.40;99.90;;;;;;5012886;28;20884;-53
2022/05/02 07:37:41;;;;;;;14.43;8.90;;;20.80;99.90;;;;;;5017043;28;20409;-51
2022/05/02 07:40:12;;;;;;;10.77;8.60;;;21.00;99.90;;;;;;5017650;28;20409;-51
2022/05/02 07:42:44;;;;;;;11.33;9.70;;;20.90;99.90;;;;;;5016125;28;20440;-55
2022/05/02 07:45:14;;;;;;;14.40;8.00;;;20.60;99.90;;;;;;5012677;28;20481;-51
2022/05/02 07:47:43;;;;;;;10.67;9.20;;;20.60;99.90;;;;;;5016368;28;20821;-50
2022/05/02 07:50:13;;;;;;;9.40;8.50;;;20.80;99.90;;;;;;5015917;28;20448;-52
2022/05/02 07:52:43;;;;;;;8.93;8.07;;;20.90;99.90;;;;;;5016117;28;20625;-55
2022/05/02 07:55:14;;;;;;;10.83;8.37;;;21.20;98.60;;;;;;5015879;28;20452;-51
2022/05/02 07:57:48;;;;;;;14.73;8.40;;;22.00;98.30;;;;;;5016307;28;20446;-52
2022/05/02 08:00:16;;;;;;;10.50;8.70;;;21.80;97.20;;;;;;5015420;28;20781;-51
2022/05/02 08:02:44;;;;;;;9.80;8.37;;;22.50;96.10;;;;;;5016209;28;20438;-50
2022/05/02 08:05:11;;;;;;;12.50;8.43;;;22.10;94.90;;;;;;5016253;28;20440;-51
2022/05/02 08:07:43;;;;;;;11.87;10.67;;;22.20;94.60;;;;;;5016482;28;20511;-49
2022/05/02 08:10:55;;;;;;;12.43;9.73;;;22.30;94.60;;;;;;5014305;28;20424;-52
2022/05/02 08:13:45;;;;;;;10.77;8.20;;;22.60;93.90;;;;;;5015643;28;20693;-51
2022/05/02 08:16:25;;;;;;;11.50;8.50;;;23.40;92.30;;;;;;5008560;28;20553;-51
2022/05/02 08:19:03;;;;;;;10.90;8.20;;;23.40;92.10;;;;;;5014953;28;20537;-52
2022/05/02 08:21:35;;;;;;;13.40;9.37;;;23.70;91.90;;;;;;5014797;28;20505;-48
2022/05/02 08:27:31;;;;;;;9.50;8.50;;;24.50;87.50;;;;;;5015852;28;20486;-52
2022/05/02 08:30:07;;;;;;;11.30;9.50;;;24.20;88.20;;;;;;5017547;28;20433;-54
2022/05/02 08:33:11;;;;;;;9.53;7.70;;;24.00;86.40;;;;;;5018938;28;20819;-52
2022/05/02 08:35:56;;;;;;;12.00;8.50;;;24.20;86.70;;;;;;5019203;28;20475;-49
2022/05/02 08:38:40;;;;;;;8.97;7.50;;;24.10;86.40;;;;;;5018960;28;20866;-49
2022/05/02 08:41:29;;;;;;;13.27;8.20;;;23.40;86.50;;;;;;5018934;28;20501;-53
2022/05/02 08:44:32;;;;;;;8.20;7.30;;;23.70;87.30;;;;;;5010777;28;20443;-53
2022/05/02 08:47:36;;;;;;;9.07;8.10;;;23.70;87.20;;;;;;5017334;28;20655;-56
2022/05/02 08:50:19;;;;;;;10.23;8.10;;;24.00;86.70;;;;;;5015746;28;20521;-50
2022/05/02 08:53:15;;;;;;;8.63;7.43;;;24.10;87.00;;;;;;5010819;28;20822;-54
2022/05/02 08:56:20;;;;;;;11.20;8.10;;;24.70;83.20;;;;;;4998325;28;20439;-53
2022/05/02 08:59:35;;;;;;;13.50;8.37;;;25.00;80.60;;;;;;4999085;28;20426;-52
2022/05/02 09:02:06;;;;;;;12.30;7.47;;;25.00;81.00;;;;;;5000445;28;21014;-50
2022/05/02 09:04:55;;;;;;;8.30;7.50;;;25.20;82.20;;;;;;4997902;28;20995;-52
2022/05/02 09:08:00;;;;;;;9.07;8.13;;;25.10;82.30;;;;;;4999151;28;20880;-51
2022/05/02 09:11:07;;;;;;;10.20;8.30;;;25.50;79.00;;;;;;4999020;28;20449;-52
2022/05/02 09:14:14;;;;;;;8.83;7.83;;;25.20;79.20;;;;;;5000195;28;20442;-52
2022/05/02 09:17:28;;;;;;;11.07;8.40;;;24.10;82.50;;;;;;5003241;28;20442;-53
2022/05/02 09:19:58;;;;;;;8.77;7.57;;;25.20;80.30;;;;;;5003351;28;20768;-53
2022/05/02 09:22:49;;;;;;;8.70;7.20;;;25.30;81.20;;;;;;5002551;28;20524;-53
2022/05/02 09:25:53;;;;;;;9.97;7.77;;;25.80;79.00;;;;;;5000221;28;20449;-51
2022/05/02 09:28:23;;;;;;;7.77;7.00;;;25.50;78.50;;;;;;4998293;28;20466;-51
2022/05/02 09:31:11;;;;;;;8.60;7.70;;;25.60;78.10;;;;;;4998673;28;20474;-49
2022/05/02 09:34:18;;;;;;;12.93;7.50;;;25.30;79.80;;;;;;4998347;28;20435;-50
2022/05/02 09:37:12;;;;;;;7.80;6.13;;;24.70;79.70;;;;;;4998348;28;20510;-51
2022/05/02 09:39:50;;;;;;;7.27;6.47;;;24.40;81.40;;;;;;5011561;28;20504;-51
2022/05/02 09:42:54;;;;;;;14.23;7.23;;;24.00;82.00;;;;;;5016332;28;20443;-51
2022/05/02 09:51:43;;;;;;;10.60;6.50;;;23.20;79.20;;;;;;5018355;28;20525;-52
2022/05/02 09:56:38;;;;;;;7.30;6.50;;;22.70;80.70;;;;;;5017677;28;20409;-51
2022/05/02 09:57:26;;;;;;;11.73;6.77;;;22.40;80.90;;;;;;5017515;28;20445;-52
2022/05/02 10:03:07;;;;;;;6.77;6.17;;;21.60;81.50;;;;;;5019515;28;20606;-53
2022/05/02 10:05:49;;;;;;;8.00;7.20;;;21.50;84.10;;;;;;5017397;28;20573;-51
2022/05/02 10:08:44;;;;;;;8.90;6.20;;;21.50;81.90;;;;;;5009741;28;20836;-52
2022/05/02 10:11:40;;;;;;;8.60;6.73;;;21.70;83.70;;;;;;4997284;28;20781;-52
2022/05/02 10:14:25;;;;;;;15.53;7.77;;;21.90;83.30;;;;;;4996677;28;20776;-54
2022/05/02 10:17:12;;;;;;;7.77;6.50;;;21.40;82.40;;;;;;5006542;28;20770;-50
2022/05/02 10:19:54;;;;;;;7.77;6.90;;;20.90;83.00;;;;;;5011104;28;20460;-51
2022/05/02 10:22:30;;;;;;;9.13;6.90;;;20.50;82.90;;;;;;5017220;28;20783;-51
2022/05/02 10:25:11;;;;;;;6.47;5.80;;;20.50;83.20;;;;;;5016578;28;20482;-54
2022/05/02 10:27:58;;;;;;;8.63;6.10;;;20.80;84.60;;;;;;5017075;28;20556;-52
2022/05/02 10:30:36;;;;;;;11.07;7.00;;;21.30;84.30;;;;;;5015607;28;20772;-52
2022/05/02 10:33:11;;;;;;;6.50;5.90;;;21.50;83.00;;;;;;5016757;28;20440;-52
2022/05/02 10:35:45;;;;;;;6.43;5.83;;;21.80;82.30;;;;;;5016348;28;20505;-52
2022/05/02 10:38:20;;;;;;;6.40;5.60;;;21.60;79.90;;;;;;5016630;28;20684;-51
2022/05/02 10:40:51;;;;;;;5.73;5.23;;;21.20;80.90;;;;;;5016415;28;20554;-51
2022/05/02 10:43:26;;;;;;;6.57;5.40;;;21.00;81.10;;;;;;5016843;28;20681;-53
2022/05/02 10:45:57;;;;;;;10.73;6.97;;;20.90;80.90;;;;;;5016150;28;20490;-51
2022/05/02 10:48:44;;;;;;;7.17;6.33;;;21.00;82.00;;;;;;5015737;28;20467;-53
2022/05/02 10:51:40;;;;;;;8.10;5.50;;;21.10;81.50;;;;;;5015702;28;20445;-52
2022/05/02 10:54:21;;;;;;;10.30;6.80;;;21.50;81.30;;;;;;5015712;28;20548;-52
2022/05/02 10:56:55;;;;;;;8.23;7.07;;;21.70;80.90;;;;;;5014311;28;20440;-50
2022/05/02 10:59:23;;;;;;;7.23;6.50;;;21.40;81.00;;;;;;5015869;28;20563;-53
2022/05/02 11:02:12;;;;;;;6.80;6.10;;;21.10;80.20;;;;;;5014408;28;20444;-50
2022/05/02 11:04:46;;;;;;;6.60;5.90;;;20.80;81.00;;;;;;5013039;28;20424;-52
2022/05/02 11:07:30;;;;;;;6.63;5.40;;;20.70;80.20;;;;;;5007723;28;20877;-48
2022/05/02 11:10:09;;;;;;;7.33;5.40;;;20.80;81.00;;;;;;5009812;28;20846;-52
2022/05/02 11:12:50;;;;;;;8.17;6.13;;;21.00;80.00;;;;;;5015491;28;20718;-53
2022/05/02 11:15:25;;;;;;;7.00;6.37;;;21.20;79.40;;;;;;5015659;28;20447;-53
2022/05/02 11:20:41;;;;;;;7.33;5.20;;;21.20;77.40;;;;;;5015544;28;20459;-53
2022/05/02 11:21:10;;;;;;;6.37;5.17;;;21.00;76.80;;;;;;5014898;28;20439;-53
2022/05/02 11:23:47;;;;;;;11.43;6.40;;;20.70;77.30;;;;;;5007350;28;20445;-52
2022/05/02 11:26:37;;;;;;;5.70;5.03;;;20.90;76.90;;;;;;5015573;28;20742;-52
2022/05/02 11:29:36;;;;;;;7.43;5.67;;;21.00;77.70;;;;;;5015863;28;20441;-51
2022/05/02 11:32:09;;;;;;;7.63;6.20;;;21.10;76.70;;;;;;5013652;28;20441;-51
2022/05/02 11:34:44;;;;;;;7.30;6.50;;;21.20;76.90;;;;;;5015547;28;20437;-54
2022/05/02 11:37:37;;;;;;;8.27;6.67;;;21.30;76.40;;;;;;5015376;28;20470;-52
2022/05/02 11:40:09;;;;;;;6.53;5.73;;;21.50;77.70;;;;;;4994492;28;20772;-51
2022/05/02 11:42:43;;;;;;;6.73;5.90;;;21.80;76.20;;;;;;5015473;28;20633;-55
2022/05/02 11:45:17;;;;;;;10.87;5.67;;;21.70;75.90;;;;;;5015303;28;20449;-53
2022/05/02 11:48:16;;;;;;;9.17;7.10;;;21.70;77.00;;;;;;5014585;28;20484;-51
2022/05/02 11:50:46;;;;;;;6.23;5.20;;;21.60;74.80;;;;;;5015091;28;20764;-52
2022/05/02 11:53:16;;;;;;;7.20;6.33;;;21.40;77.50;;;;;;5011542;28;20467;-50
2022/05/02 11:55:46;;;;;;;9.53;6.20;;;21.20;77.80;;;;;;5014742;28;20444;-51
2022/05/02 11:58:26;;;;;;;7.53;6.83;;;21.30;77.50;;;;;;5014991;28;20642;-52
2022/05/02 12:01:06;;;;;;;7.27;6.53;;;21.50;78.10;;;;;;5010883;28;20460;-50
2022/05/02 12:04:03;;;;;;;7.20;5.70;;;21.80;74.70;;;;;;5011057;28;20525;-49
2022/05/02 12:06:44;;;;;;;8.10;5.13;;;21.90;76.00;;;;;;5014235;28;20441;-51
2022/05/02 12:09:22;;;;;;;6.60;4.90;;;21.70;75.20;;;;;;5014021;28;20729;-52
2022/05/02 12:11:58;;;;;;;7.77;6.20;;;21.70;77.20;;;;;;5012607;28;20450;-53
2022/05/02 12:14:26;;;;;;;7.10;6.33;;;21.40;75.30;;;;;;5011994;28;20447;-52
2022/05/02 12:17:10;;;;;;;6.63;5.93;;;20.90;76.40;;;;;;5013170;28;20450;-52
2022/05/02 12:19:40;;;;;;;9.07;6.60;;;20.70;78.00;;;;;;5002663;28;20826;-50
2022/05/02 12:22:21;;;;;;;7.77;5.80;;;20.60;77.30;;;;;;4994900;28;20449;-51
2022/05/02 12:24:53;;;;;;;7.77;6.07;;;20.40;78.90;;;;;;4995253;28;20402;-50
2022/05/02 12:27:25;;;;;;;6.87;5.43;;;20.20;79.70;;;;;;4995395;28;20482;-53
2022/05/02 12:29:58;;;;;;;6.57;5.97;;;20.20;79.10;;;;;;4994998;28;20456;-52
2022/05/02 12:32:26;;;;;;;7.70;5.90;;;20.40;79.60;;;;;;4995535;28;20488;-52
2022/05/02 12:34:57;;;;;;;6.10;5.50;;;20.80;78.90;;;;;;4995179;28;20467;-53
2022/05/02 12:37:39;;;;;;;6.43;5.23;;;20.80;77.00;;;;;;4993871;28;20419;-52
2022/05/02 12:40:10;;;;;;;6.47;5.83;;;21.00;78.40;;;;;;4995251;28;20750;-55
2022/05/02 12:42:48;;;;;;;7.60;5.33;;;21.00;76.90;;;;;;4995012;28;20474;-56
2022/05/02 12:45:17;;;;;;;5.97;5.47;;;20.80;77.20;;;;;;5003393;28;20632;-53
2022/05/02 12:47:50;;;;;;;5.57;5.07;;;21.00;78.60;;;;;;5012855;28;20717;-54
2022/05/02 12:50:27;;;;;;;7.30;5.20;;;21.20;76.90;;;;;;5013074;28;20491;-52
2022/05/02 12:52:56;;;;;;;8.60;5.53;;;21.40;75.80;;;;;;5013939;28;20681;-54
2022/05/02 12:55:30;;;;;;;5.83;5.33;;;21.60;75.90;;;;;;5014863;28;20793;-52
2022/05/02 13:00:50;;;;;;;6.17;5.53;;;21.20;76.50;;;;;;5014330;28;20445;-54
2022/05/02 13:03:30;;;;;;;7.20;6.07;;;20.90;76.50;;;;;;5014689;28;20822;-51
2022/05/02 13:06:06;;;;;;;7.37;5.43;;;20.60;77.60;;;;;;5014237;28;20411;-53
2022/05/02 13:08:36;;;;;;;9.50;5.30;;;20.60;78.60;;;;;;5005478;28;20462;-52
2022/05/02 13:11:09;;;;;;;6.53;5.80;;;20.90;78.20;;;;;;4994919;28;20632;-52
2022/05/02 13:13:52;;;;;;;5.70;5.17;;;20.90;79.30;;;;;;4996800;28;20436;-53
2022/05/02 13:16:27;;;;;;;6.63;6.03;;;21.10;78.40;;;;;;4995893;28;20433;-54
2022/05/02 13:18:57;;;;;;;5.30;4.80;;;21.40;78.00;;;;;;5003443;28;20498;-50
2022/05/02 13:21:25;;;;;;;6.80;5.47;;;21.80;77.00;;;;;;5000387;28;20457;-51
2022/05/02 13:23:57;;;;;;;5.70;5.10;;;22.10;76.60;;;;;;5006339;28;20697;-52
2022/05/02 13:26:49;;;;;;;5.87;5.30;;;22.40;74.40;;;;;;5014403;28;20527;-52
2022/05/02 13:29:32;;;;;;;5.40;4.90;;;22.80;73.30;;;;;;5017770;28;20529;-52
2022/05/02 13:32:10;;;;;;;7.33;5.80;;;23.00;74.20;;;;;;5017758;28;20655;-50
2022/05/02 13:34:49;;;;;;;8.23;5.50;;;22.70;75.90;;;;;;5016942;28;20455;-51
2022/05/02 13:37:20;;;;;;;6.20;5.63;;;22.50;75.00;;;;;;5017218;28;20437;-50
2022/05/02 13:39:57;;;;;;;5.27;4.80;;;22.50;74.70;;;;;;5015954;28;20454;-50
2022/05/02 13:42:57;;;;;;;5.70;5.10;;;22.60;75.10;;;;;;5017767;28;20853;-52
2022/05/02 13:45:45;;;;;;;4.60;4.20;;;22.60;74.70;;;;;;5014676;28;20443;-51
2022/05/02 13:48:21;;;;;;;7.57;5.47;;;22.60;75.50;;;;;;5012508;28;20469;-50
2022/05/02 13:51:00;;;;;;;9.70;5.73;;;22.90;76.20;;;;;;5016608;28;20412;-51
2022/05/02 13:53:34;;;;;;;5.27;4.87;;;23.20;74.10;;;;;;5016612;28;20413;-47